27 de junho de 2022

Hora Código Clima Temp. Visibilidade Tecto Vento METAR/SPECI
4:30 da tarde
M
68 °F 6¼ mi+ 2.200 ft 280° 280° 14 kt METAR LFMK 271430Z AUTO 28014KT 250V310 9999 BKN022 BKN240 20/14 Q1020 TEMPO SCT030TCU
4:00 da tarde
V
66 °F 6¼ mi+ 10.000 ft 280° 280° 14 kt METAR LFMK 271400Z AUTO 28014KT 9999 SCT020 BKN100 19/14 Q1020 TEMPO SCT030TCU
3:30 da tarde
V
66 °F 6¼ mi+ 20.000 ft 280° 280° 12 kt METAR LFMK 271330Z AUTO 28012KT 250V310 9999 FEW020 SCT180 BKN200 19/15 Q1020 TEMPO SCT030TCU
3:00 da tarde
V
66 °F 6¼ mi+ - 290° 290° 12 kt METAR LFMK 271300Z AUTO 29012KT 260V320 9999 ///TCU 19/14 Q1019 TEMPO 4000 RA BKN012 FEW060CB
2:30 da tarde
V
64 °F 6¼ mi+ - 280° 280° 11 kt METAR LFMK 271230Z AUTO 28011KT CAVOK 18/14 Q1021 TEMPO 4000 RA SCT030TCU
2:00 da tarde
V
64 °F 6¼ mi+ 10.000 ft 260° 260° 12 kt METAR LFMK 271200Z AUTO 26012KT 230V290 9999 SCT019 OVC100 18/14 Q1021 TEMPO 4000 RA BKN012 FEW060CB
1:30 da tarde
M
66 °F 6¼ mi+ 1.900 ft 280° 280° 14 kt METAR LFMK 271130Z AUTO 28014KT 9999 OVC019 19/14 Q1020 TEMPO 4000 RA BKN012 FEW060CB
1:00 da tarde
M
68 °F 6¼ mi+ 1.800 ft 290° 290° 12 kt METAR LFMK 271100Z AUTO 29012KT 9999 BKN018 BKN120 20/14 Q1020 TEMPO 4000 RA BKN012 FEW060CB
12:30 da tarde
M
66 °F 6¼ mi+ 1.500 ft 280° 280° 13 kt METAR LFMK 271030Z AUTO 28013KT 240V310 9999 BKN015 BKN045 BKN100 19/14 Q1020 TEMPO 4000 RA BKN012 FEW060CB
12:00 da tarde
M
64 °F 6¼ mi+ 1.500 ft 280° 280° 13 kt METAR LFMK 271000Z AUTO 28013KT 240V310 9999 BKN015 BKN047 OVC098 18/15 Q1020 TEMPO 4000 RA BKN012 FEW060CB
11:30 da manhã
M
64 °F 6¼ mi+ 1.300 ft 280° 280° 12 kt METAR LFMK 270930Z AUTO 28012KT 240V300 9999 BKN013 OVC018 18/15 Q1020 TEMPO 4000 RA BKN012 FEW060CB
11:00 da manhã
M
64 °F 6¼ mi+ 1.200 ft 280° 280° 14 kt METAR LFMK 270900Z AUTO 28014KT 9999 OVC012 18/15 Q1020 TEMPO 4000 RA BKN012 FEW060CB
10:30 da manhã
M
64 °F 6¼ mi+ 1.000 ft 280° 280° 12 kt METAR LFMK 270830Z AUTO 28012KT 9999 OVC010 18/15 Q1019 TEMPO 4000 RA BKN012 BKN040 FEW060CB BECMG 27015G25KT
10:00 da manhã
I
63 °F 6¼ mi+ 900 ft 270° 270° 12 kt METAR LFMK 270800Z AUTO 27012KT 9999 OVC009 17/15 Q1019 TEMPO 4000 RA BKN012 BKN040 FEW060CB
9:30 da manhã
M
61 °F 6¼ mi+ 1.000 ft 270° 270° 12 kt METAR LFMK 270730Z AUTO 27012KT 9999 OVC010 16/14 Q1019 TEMPO 4000 RA BKN012 BKN040 FEW060CB
9:00 da manhã
M
61 °F 6¼ mi+ 1.100 ft 270° 270° 10 kt METAR LFMK 270700Z AUTO 27010KT 230V300 9999 OVC011 16/15 Q1018 TEMPO OVC009
8:30 da manhã
I
61 °F 6¼ mi+ 900 ft 270° 270° 10 kt METAR LFMK 270630Z AUTO 27010KT 9999 BKN009 OVC013 16/15 Q1018 NOSIG
8:00 da manhã
I
61 °F 6¼ mi+ 900 ft 270° 270° 9 kt METAR LFMK 270600Z AUTO 27009KT 9999 BKN009 OVC015 16/14 Q1018 NOSIG
7:30 da manhã
M
61 °F 6¼ mi+ 1.600 ft 280° 280° 12 kt METAR LFMK 270530Z AUTO 28012KT 9999 FEW008 BKN016 BKN022 16/15 Q1018 TEMPO OVC009
7:00 da manhã
I
61 °F 6¼ mi+ 700 ft 270° 270° 12 kt METAR LFMK 270500Z AUTO 27012KT 9999 BKN007 BKN011 BKN020 16/14 Q1018 NOSIG
6:30 da manhã
V
61 °F 6¼ mi+ 5.800 ft 260° 260° 12 kt METAR LFMK 270430Z AUTO 26012KT 230V290 9999 FEW008 OVC058 16/14 Q1017 TEMPO OVC009
6:00 da manhã
V
61 °F 6¼ mi+ 5.400 ft 270° 270° 12 kt METAR LFMK 270400Z AUTO 27012KT 9999 FEW007 OVC054 16/14 Q1017 TEMPO OVC009
5:30 da manhã
I
59 °F 6¼ mi+ 800 ft 270° 270° 13 kt METAR LFMK 270330Z AUTO 27013KT 9999 BKN008 BKN015 OVC040 15/14 Q1017 NOSIG
5:00 da manhã
I
61 °F 6¼ mi+ 900 ft 270° 270° 12 kt METAR LFMK 270300Z AUTO 27012KT 9999 BKN009 OVC038 16/15 Q1016 NOSIG
4:30 da manhã
M
61 °F 6¼ mi+ 1.000 ft 280° 280° 12 kt METAR LFMK 270230Z AUTO 28012KT 240V300 9999 BKN010 OVC016 16/14 Q1017
4:00 da manhã
M
61 °F 6¼ mi+ 2.000 ft 280° 280° 12 kt METAR LFMK 270200Z AUTO 28012KT 9999 FEW015 OVC020 16/14 Q1016
3:30 da manhã
M
61 °F 6¼ mi+ 2.100 ft 280° 280° 10 kt METAR LFMK 270130Z AUTO 28010KT 240V300 9999 FEW009 BKN021 BKN028 16/15 Q1016
3:00 da manhã
M
61 °F 6¼ mi+ 1.000 ft 260° 260° 9 kt METAR LFMK 270100Z AUTO 26009KT 9999 BKN010 BKN028 OVC056 16/14 Q1015
2:30 da manhã
I
61 °F 6¼ mi+ 700 ft 270° 270° 7 kt METAR LFMK 270030Z AUTO 27007KT 230V290 9999 BKN007 OVC058 16/15 Q1015
2:00 da manhã
I
61 °F 6¼ mi+ 600 ft 270° 270° 9 kt METAR LFMK 270000Z AUTO 27009KT 240V300 9999 OVC006 16/15 Q1016
1:30 da manhã
I
61 °F 6¼ mi+ 600 ft 270° 270° 10 kt METAR LFMK 262330Z AUTO 27010KT 9999 BKN006 BKN037 OVC046 16/15 Q1016
1:00 da manhã
I
61 °F 6¼ mi+ 900 ft 260° 260° 10 kt METAR LFMK 262300Z AUTO 26010KT 220V290 9999 BKN009 BKN031 OVC044 16/15 Q1016
12:30 da manhã
I
63 °F 6¼ mi+ 900 ft 270° 270° 10 kt METAR LFMK 262230Z AUTO 27010KT 240V300 9999 BKN009 BKN013 BKN021 17/15 Q1016
12:00 da manhã
M
63 °F 6¼ mi+ 1.000 ft 270° 270° 10 kt METAR LFMK 262200Z AUTO 27010KT 240V310 9999 BKN010 BKN015 OVC041 17/16 Q1016

26 de junho de 2022

Hora Código Clima Temp. Visibilidade Tecto Vento METAR/SPECI
11:30 da tarde
M
63 °F 6¼ mi+ 1.100 ft 270° 270° 8 kt METAR LFMK 262130Z AUTO 27008KT 230V290 9999 BKN011 BKN017 BKN029 17/15 Q1015
11:00 da tarde
M
63 °F 6¼ mi+ 2.800 ft 270° 270° 9 kt METAR LFMK 262100Z AUTO 27009KT 230V290 9999 SCT012 SCT021 BKN028 17/15 Q1015
10:30 da tarde
V
63 °F 6¼ mi+ 3.200 ft 270° 270° 10 kt METAR LFMK 262030Z AUTO 27010KT 230V290 9999 FEW011 OVC032 17/15 Q1015
10:00 da tarde
V
63 °F 6¼ mi+ 3.300 ft 270° 270° 9 kt METAR LFMK 262000Z AUTO 27009KT 9999 FEW010 OVC033 17/15 Q1014
9:30 da tarde
V
63 °F 6¼ mi+ 3.300 ft 270° 270° 11 kt METAR LFMK 261930Z AUTO 27011KT 240V300 9999 FEW011 SCT018 OVC033 17/15 Q1014
9:00 da tarde
M
64 °F 6¼ mi+ 1.200 ft 270° 270° 9 kt METAR LFMK 261900Z AUTO 27009KT 9999 BKN012 OVC033 18/15 Q1013
8:30 da tarde
V
64 °F 6¼ mi+ 3.200 ft 270° 270° 10 kt METAR LFMK 261830Z AUTO 27010KT 9999 SCT013 OVC032 18/15 Q1013
8:00 da tarde
V
64 °F 6¼ mi+ 3.100 ft 270° 270° 8 kt METAR LFMK 261800Z AUTO 27008KT 9999 SCT011 OVC031 18/15 Q1013 TEMPO BKN009 SCT050TCU
7:30 da tarde
M
64 °F 6¼ mi+ 2.900 ft 270° 270° 10 kt METAR LFMK 261730Z AUTO 27010KT 240V310 9999 SCT010 OVC029 18/16 Q1013 TEMPO BKN009 SCT050TCU
7:00 da tarde
M
64 °F 6¼ mi+ 1.000 ft 270° 270° 11 kt METAR LFMK 261700Z AUTO 27011KT 240V300 9999 BKN010 OVC025 18/16 Q1013 TEMPO BKN012 SCT050TCU
6:30 da tarde
M
64 °F 6¼ mi+ 1.300 ft 270° 270° 11 kt METAR LFMK 261630Z AUTO 27011KT 230V290 9999 BKN013 OVC022 18/15 Q1012 TEMPO BKN012 SCT050TCU
6:00 da tarde
M
64 °F 6¼ mi+ 1.500 ft 270° 270° 10 kt METAR LFMK 261600Z AUTO 27010KT 230V310 9999 BKN015 BKN020 OVC026 18/15 Q1012 TEMPO BKN012 SCT050TCU
5:30 da tarde
M
66 °F 6¼ mi+ 2.600 ft 270° 270° 11 kt METAR LFMK 261530Z AUTO 27011KT 230V290 9999 FEW017 OVC026 19/15 Q1012 TEMPO BKN012 SCT050TCU
5:00 da tarde
M
66 °F 6¼ mi+ 2.500 ft 280° 280° 10 kt METAR LFMK 261500Z AUTO 28010KT 240V310 9999 FEW018 OVC025 19/15 Q1012 TEMPO 4000 -RA
4:30 da tarde
M
66 °F 6¼ mi+ 2.400 ft 270° 270° 10 kt METAR LFMK 261430Z AUTO 27010KT 9999 OVC024 19/15 Q1012 TEMPO 4000 -RA
4:00 da tarde
M
66 °F 6¼ mi+ 2.300 ft 280° 280° 10 kt METAR LFMK 261400Z AUTO 28010KT 230V310 9999 FEW015 OVC023 19/15 Q1012 TEMPO 4000 -RA
3:30 da tarde
M
66 °F 6¼ mi+ 2.700 ft 280° 280° 10 kt METAR LFMK 261330Z AUTO 28010KT 230V310 9999 FEW014 OVC027 19/15 Q1012 TEMPO 4000 -RA
3:00 da tarde
M
68 °F 6¼ mi+ 2.800 ft 280° 280° 8 kt METAR LFMK 261300Z AUTO 28008KT 250V320 9999 FEW015 OVC028 20/16 Q1012 TEMPO 4000 -RA
2:30 da tarde
M
66 °F 6¼ mi+ 2.900 ft 270° 270° 8 kt METAR LFMK 261230Z AUTO 27008KT 240V310 9999 FEW016 OVC029 19/15 Q1012 TEMPO 4000 -RA
2:00 da tarde
V
68 °F 6¼ mi+ 3.400 ft 280° 280° 8 kt METAR LFMK 261200Z AUTO 28008KT 240V310 9999 FEW017 SCT027 OVC034 20/16 Q1012 TEMPO 4000 -RA
1:30 da tarde
V
68 °F 6¼ mi+ 3.600 ft 270° 270° 7 kt METAR LFMK 261130Z AUTO 27007KT 230V310 9999 FEW019 SCT025 OVC036 20/15 Q1012 TEMPO 4000 -RA
1:00 da tarde
M
68 °F 6¼ mi+ 2.000 ft 290° 290° 7 kt METAR LFMK 261100Z AUTO 29007KT 240V320 9999 BKN020 OVC038 20/15 Q1012 TEMPO 4000 -RA
12:30 da tarde
V
68 °F 6¼ mi+ 3.600 ft 280° 280° 8 kt METAR LFMK 261030Z AUTO 28008KT 240V330 9999 SCT019 BKN036 OVC048 20/15 Q1013 TEMPO 4000 -RA
12:00 da tarde
M
68 °F 6¼ mi+ 1.700 ft 280° 280° 7 kt METAR LFMK 261000Z AUTO 28007KT 240V310 9999 OVC017 20/16 Q1013 NOSIG
11:30 da manhã
M
68 °F 6¼ mi+ 1.700 ft 250° 250° 5 kt METAR LFMK 260930Z AUTO 25005KT 200V290 9999 BKN017 OVC039 20/16 Q1013 NOSIG
11:00 da manhã
M
66 °F 6¼ mi+ 1.400 ft 260° 260° 7 kt METAR LFMK 260900Z AUTO 26007KT 220V300 9999 OVC014 19/15 Q1013 BECMG BKN030
10:30 da manhã
M
64 °F 6¼ mi+ 1.300 ft 270° 270° 7 kt METAR LFMK 260830Z AUTO 27007KT 230V290 9999 OVC013 18/15 Q1013 BECMG SCT013 BKN030
10:00 da manhã
M
64 °F 6¼ mi+ 1.200 ft 260° 260° 7 kt METAR LFMK 260800Z AUTO 26007KT 230V290 9999 OVC012 18/15 Q1013 BECMG SCT013 BKN030
9:30 da manhã
M
63 °F 6¼ mi+ 1.100 ft 260° 260° 7 kt METAR LFMK 260730Z AUTO 26007KT 230V300 9999 OVC011 17/15 Q1013 BECMG SCT013 BKN030
9:00 da manhã
M
63 °F 6¼ mi+ 1.100 ft 260° 260° 8 kt METAR LFMK 260700Z AUTO 26008KT 230V290 9999 OVC011 17/15 Q1013 BECMG SCT013 BKN030
8:30 da manhã
M
63 °F 6¼ mi+ 1.100 ft 260° 260° 8 kt METAR LFMK 260630Z AUTO 26008KT 220V290 9999 BKN011 BKN040 OVC050 17/15 Q1013 BECMG SCT013 BKN030
8:00 da manhã
V
63 °F 6¼ mi+ 5.200 ft 260° 260° 8 kt METAR LFMK 260600Z AUTO 26008KT 230V290 9999 FEW038 OVC052 17/15 Q1014 TEMPO BKN008
7:30 da manhã
V
63 °F 6¼ mi+ 4.700 ft 270° 270° 9 kt METAR LFMK 260530Z AUTO 27009KT 230V290 9999 SCT009 SCT038 BKN047 17/15 Q1014 TEMPO BKN008
7:00 da manhã
I
63 °F 6¼ mi+ 800 ft 260° 260° 8 kt METAR LFMK 260500Z AUTO 26008KT 230V290 9999 OVC008 17/15 Q1013 NOSIG
6:30 da manhã
M
63 °F 6¼ mi+ 1.000 ft 260° 260° 8 kt METAR LFMK 260430Z AUTO 26008KT 220V290 9999 OVC010 17/15 Q1013 NOSIG
6:00 da manhã
M
63 °F 6¼ mi+ 1.100 ft 260° 260° 8 kt METAR LFMK 260400Z AUTO 26008KT 230V290 9999 OVC011 17/15 Q1013 TEMPO BKN008
5:30 da manhã
M
63 °F 6¼ mi+ 1.100 ft 260° 260° 7 kt METAR LFMK 260330Z AUTO 26007KT 9999 BKN011 OVC028 17/15 Q1013 TEMPO BKN008
5:00 da manhã
M
63 °F 6¼ mi+ 2.700 ft 260° 260° 8 kt METAR LFMK 260300Z AUTO 26008KT 220V290 9999 BKN027 OVC050 17/15 Q1013 TEMPO BKN008
4:30 da manhã
V
63 °F 6¼ mi+ 4.900 ft 260° 260° 8 kt METAR LFMK 260230Z AUTO 26008KT 230V290 9999 FEW013 BKN049 OVC056 17/15 Q1013
4:00 da manhã
M
63 °F 6¼ mi+ 1.200 ft 260° 260° 9 kt METAR LFMK 260200Z AUTO 26009KT 230V290 9999 OVC012 17/15 Q1013
3:30 da manhã
M
64 °F 6¼ mi+ 1.100 ft 270° 270° 10 kt METAR LFMK 260130Z AUTO 27010KT 9999 OVC011 18/15 Q1013
3:00 da manhã
M
64 °F 6¼ mi+ 1.200 ft 270° 270° 11 kt METAR LFMK 260100Z AUTO 27011KT 230V300 9999 BKN012 OVC049 18/15 Q1013
2:30 da manhã
M
64 °F 6¼ mi+ 1.100 ft 270° 270° 11 kt METAR LFMK 260030Z AUTO 27011KT 9999 BKN011 OVC054 18/16 Q1013
2:00 da manhã
V
64 °F 6¼ mi+ 5.400 ft 270° 270° 9 kt METAR LFMK 260000Z AUTO 27009KT 240V300 9999 FEW012 SCT045 BKN054 18/16 Q1013
1:30 da manhã
V
64 °F 6¼ mi+ 4.300 ft 270° 270° 11 kt METAR LFMK 252330Z AUTO 27011KT 230V300 9999 OVC043 18/16 Q1013
1:00 da manhã
V
64 °F 6¼ mi+ 4.200 ft 260° 260° 9 kt METAR LFMK 252300Z AUTO 26009KT 220V290 9999 OVC042 18/16 Q1013
12:30 da manhã
V
66 °F 6¼ mi+ 4.300 ft 270° 270° 11 kt METAR LFMK 252230Z AUTO 27011KT 230V300 9999 OVC043 19/16 Q1013
12:00 da manhã
V
66 °F 6¼ mi+ 4.100 ft 270° 270° 12 kt METAR LFMK 252200Z AUTO 27012KT 9999 FEW034 OVC041 19/16 Q1013

25 de junho de 2022

Hora Código Clima Temp. Visibilidade Tecto Vento METAR/SPECI
11:30 da tarde
V
68 °F 6¼ mi+ 3.600 ft 280° 280° 10 kt METAR LFMK 252130Z AUTO 28010KT 9999 OVC036/// //////CB 20/16 Q1013
11:00 da tarde
V
68 °F 6¼ mi+ 3.300 ft 270° 270° 9 kt METAR LFMK 252100Z AUTO 27009KT 9999 OVC033/// ///CB 20/16 Q1013
10:30 da tarde
V
68 °F 6¼ mi+ 3.000 ft 270° 270° 9 kt METAR LFMK 252030Z AUTO 27009KT 240V300 9999 OVC030 20/16 Q1013
10:00 da tarde
V
70 °F 6¼ mi+ 3.000 ft 280° 280° 10 kt METAR LFMK 252000Z AUTO 28010KT 9999 -RA OVC030 21/16 Q1012
9:30 da tarde
V
70 °F 6¼ mi+ 3.300 ft 280° 280° 9 kt METAR LFMK 251930Z AUTO 28009KT 9999 OVC033/// //////TCU 21/16 Q1012
9:00 da tarde
V
70 °F 6¼ mi+ 3.500 ft 280° 280° 11 kt METAR LFMK 251900Z AUTO 28011KT 9999 -RA OVC035/// ///CB 21/17 Q1012
8:30 da tarde
V
72 °F 6¼ mi+ 3.300 ft 290° 290° 8 kt METAR LFMK 251830Z AUTO 29008KT 9999 FEW025/// OVC033/// ///CB 22/18 Q1012
8:00 da tarde
M
73 °F 6¼ mi+ 2.500 ft 290° 290° 6 kt METAR LFMK 251800Z AUTO 29006KT 270V340 9999 BKN025/// OVC032/// ///CB 23/17 Q1012 TEMPO VRB20G30KT 4000 TSRA BECMG SCT012 BKN040
7:30 da tarde
M
73 °F 6¼ mi+ 2.800 ft 080° 080° 6 kt METAR LFMK 251730Z AUTO 08006KT 050V130 9999 BKN028/// BKN034/// BKN110/// //////CB 23/18 Q1011 TEMPO VRB20G30KT 4000 TSRA BECMG SCT012 BKN040
7:00 da tarde
V
75 °F 6¼ mi+ 13.000 ft 070° 070° 7 kt METAR LFMK 251700Z AUTO 07007KT 040V100 9999 FEW023/// BKN130/// BKN200/// ///CB 24/19 Q1011 TEMPO VRB20G30KT 4000 TSRA
6:30 da tarde
V
75 °F 6¼ mi+ 20.000 ft 090° 090° 9 kt METAR LFMK 251630Z AUTO 09009KT 070V130 9999 FEW024/// SCT092/// BKN200/// //////CB 24/19 Q1011 TEMPO VRB20G30KT 4000 TSRA
6:00 da tarde
V
77 °F 6¼ mi+ 3.100 ft 080° 080° 12 kt METAR LFMK 251600Z AUTO 08012KT 9999 SCT026/// BKN031/// BKN068/// ///CB 25/19 Q1011 TEMPO VRB20G30KT 4000 TSRA
5:30 da tarde
V
75 °F 6¼ mi+ 3.000 ft 070° 070° 11 kt METAR LFMK 251530Z AUTO 07011KT 040V120 9999 SCT023/// BKN030/// BKN130/// ///CB 24/19 Q1011 TEMPO VRB20G30KT 4000 TSRA
5:00 da tarde
V
73 °F 6¼ mi+ 3.000 ft 070° 070° 11 kt METAR LFMK 251500Z AUTO 07011KT 9999 -RA BKN030/// BKN058/// BKN080/// ///CB 23/20 Q1010 TEMPO VRB20G30KT 4000 TSRA
Dados mais antigos

Baixe nosso aplicativo

Fácil acesso a todas as condições meteorológicas da aviação no seu celular e no seu tablet.
Com muitas características não disponíveis no site, como suporte offline e uma lista pessoal de aeroportos.

Nós e terceiros acompanhamos seu comportamento na internet em nosso site com cookies. Se você continuar, nós assumimos que você concorda com nossa política de cookies. Saiba mais